sensor_id;sensor_type;location;lat;lon;timestamp;P1;durP1;ratioP1;P2;durP2;ratioP2
8297;SDS011;4187;42.778;23.242;2023-09-19T00:02:21;5.40;;;4.88;;
8297;SDS011;4187;42.778;23.242;2023-09-19T00:04:48;5.05;;;4.60;;
8297;SDS011;4187;42.778;23.242;2023-09-19T00:07:15;6.60;;;4.72;;
8297;SDS011;4187;42.778;23.242;2023-09-19T00:09:42;6.07;;;4.25;;
8297;SDS011;4187;42.778;23.242;2023-09-19T00:12:09;4.63;;;4.22;;
8297;SDS011;4187;42.778;23.242;2023-09-19T00:14:38;9.52;;;5.35;;
8297;SDS011;4187;42.778;23.242;2023-09-19T00:17:05;9.63;;;5.38;;
8297;SDS011;4187;42.778;23.242;2023-09-19T00:19:34;6.50;;;5.40;;
8297;SDS011;4187;42.778;23.242;2023-09-19T00:22:02;7.05;;;5.45;;
8297;SDS011;4187;42.778;23.242;2023-09-19T00:24:29;5.60;;;5.10;;
8297;SDS011;4187;42.778;23.242;2023-09-19T00:26:56;9.20;;;5.07;;
8297;SDS011;4187;42.778;23.242;2023-09-19T00:29:24;6.60;;;5.07;;
8297;SDS011;4187;42.778;23.242;2023-09-19T00:31:54;6.82;;;5.78;;
8297;SDS011;4187;42.778;23.242;2023-09-19T00:34:22;11.48;;;5.60;;
8297;SDS011;4187;42.778;23.242;2023-09-19T00:36:51;8.60;;;5.22;;
8297;SDS011;4187;42.778;23.242;2023-09-19T00:39:19;6.05;;;5.03;;
8297;SDS011;4187;42.778;23.242;2023-09-19T00:41:47;6.22;;;5.25;;
8297;SDS011;4187;42.778;23.242;2023-09-19T00:44:14;5.60;;;5.10;;
8297;SDS011;4187;42.778;23.242;2023-09-19T00:46:42;7.82;;;5.18;;
8297;SDS011;4187;42.778;23.242;2023-09-19T00:49:12;5.80;;;5.20;;
8297;SDS011;4187;42.778;23.242;2023-09-19T00:51:40;5.68;;;5.05;;
8297;SDS011;4187;42.778;23.242;2023-09-19T00:54:12;6.60;;;5.00;;
8297;SDS011;4187;42.778;23.242;2023-09-19T00:56:43;8.02;;;5.07;;
8297;SDS011;4187;42.778;23.242;2023-09-19T00:59:10;5.72;;;4.75;;
8297;SDS011;4187;42.778;23.242;2023-09-19T01:01:37;5.72;;;5.22;;
8297;SDS011;4187;42.778;23.242;2023-09-19T01:04:05;7.20;;;4.90;;
8297;SDS011;4187;42.778;23.242;2023-09-19T01:06:32;6.95;;;5.03;;
8297;SDS011;4187;42.778;23.242;2023-09-19T01:09:02;6.95;;;5.57;;
8297;SDS011;4187;42.778;23.242;2023-09-19T01:11:33;7.38;;;5.13;;
8297;SDS011;4187;42.778;23.242;2023-09-19T01:14:11;5.55;;;4.82;;
8297;SDS011;4187;42.778;23.242;2023-09-19T01:16:48;5.55;;;5.05;;
8297;SDS011;4187;42.778;23.242;2023-09-19T01:22:24;6.28;;;5.05;;
8297;SDS011;4187;42.778;23.242;2023-09-19T01:25:07;7.40;;;5.45;;
8297;SDS011;4187;42.778;23.242;2023-09-19T01:27:59;6.35;;;5.60;;
8297;SDS011;4187;42.778;23.242;2023-09-19T01:30:44;5.43;;;4.93;;
8297;SDS011;4187;42.778;23.242;2023-09-19T01:33:12;7.70;;;5.03;;
8297;SDS011;4187;42.778;23.242;2023-09-19T01:35:39;6.07;;;5.22;;
8297;SDS011;4187;42.778;23.242;2023-09-19T01:38:06;5.03;;;4.53;;
8297;SDS011;4187;42.778;23.242;2023-09-19T01:40:36;7.03;;;6.15;;
8297;SDS011;4187;42.778;23.242;2023-09-19T01:43:09;6.15;;;5.55;;
8297;SDS011;4187;42.778;23.242;2023-09-19T01:45:46;5.32;;;4.82;;
8297;SDS011;4187;42.778;23.242;2023-09-19T01:48:23;5.70;;;5.13;;
8297;SDS011;4187;42.778;23.242;2023-09-19T01:50:59;5.55;;;4.65;;
8297;SDS011;4187;42.778;23.242;2023-09-19T01:53:28;4.82;;;4.43;;
8297;SDS011;4187;42.778;23.242;2023-09-19T01:56:00;5.47;;;4.55;;
8297;SDS011;4187;42.778;23.242;2023-09-19T01:58:32;5.53;;;4.25;;
8297;SDS011;4187;42.778;23.242;2023-09-19T02:01:03;5.35;;;4.55;;
8297;SDS011;4187;42.778;23.242;2023-09-19T02:03:33;5.55;;;4.78;;
8297;SDS011;4187;42.778;23.242;2023-09-19T02:06:01;5.32;;;4.82;;
8297;SDS011;4187;42.778;23.242;2023-09-19T02:08:30;5.57;;;4.95;;
8297;SDS011;4187;42.778;23.242;2023-09-19T02:10:58;5.38;;;4.88;;
8297;SDS011;4187;42.778;23.242;2023-09-19T02:13:25;8.40;;;4.82;;
8297;SDS011;4187;42.778;23.242;2023-09-19T02:15:53;5.10;;;4.60;;
8297;SDS011;4187;42.778;23.242;2023-09-19T02:18:22;5.85;;;5.25;;
8297;SDS011;4187;42.778;23.242;2023-09-19T02:20:49;6.18;;;5.10;;
8297;SDS011;4187;42.778;23.242;2023-09-19T02:23:16;10.07;;;5.05;;
8297;SDS011;4187;42.778;23.242;2023-09-19T02:25:43;6.38;;;4.72;;
8297;SDS011;4187;42.778;23.242;2023-09-19T02:28:18;6.00;;;5.15;;
8297;SDS011;4187;42.778;23.242;2023-09-19T02:30:47;9.02;;;5.30;;
8297;SDS011;4187;42.778;23.242;2023-09-19T02:33:14;6.07;;;5.47;;
8297;SDS011;4187;42.778;23.242;2023-09-19T02:35:42;7.32;;;5.18;;
8297;SDS011;4187;42.778;23.242;2023-09-19T02:38:09;6.18;;;4.95;;
8297;SDS011;4187;42.778;23.242;2023-09-19T02:40:37;6.05;;;5.45;;
8297;SDS011;4187;42.778;23.242;2023-09-19T02:43:04;6.60;;;5.80;;
8297;SDS011;4187;42.778;23.242;2023-09-19T02:45:33;6.22;;;5.63;;
8297;SDS011;4187;42.778;23.242;2023-09-19T02:48:02;7.03;;;6.20;;
8297;SDS011;4187;42.778;23.242;2023-09-19T02:50:30;6.30;;;5.70;;
8297;SDS011;4187;42.778;23.242;2023-09-19T02:52:58;6.85;;;6.20;;
8297;SDS011;4187;42.778;23.242;2023-09-19T02:55:26;8.73;;;6.57;;
8297;SDS011;4187;42.778;23.242;2023-09-19T02:57:53;7.43;;;5.85;;
8297;SDS011;4187;42.778;23.242;2023-09-19T03:00:21;8.57;;;6.32;;
8297;SDS011;4187;42.778;23.242;2023-09-19T03:02:48;7.43;;;6.05;;
8297;SDS011;4187;42.778;23.242;2023-09-19T03:05:15;9.77;;;6.25;;
8297;SDS011;4187;42.778;23.242;2023-09-19T03:07:42;7.80;;;6.95;;
8297;SDS011;4187;42.778;23.242;2023-09-19T03:10:12;6.53;;;5.93;;
8297;SDS011;4187;42.778;23.242;2023-09-19T03:12:40;8.82;;;6.20;;
8297;SDS011;4187;42.778;23.242;2023-09-19T03:15:07;7.13;;;6.53;;
8297;SDS011;4187;42.778;23.242;2023-09-19T03:17:34;6.72;;;6.13;;
8297;SDS011;4187;42.778;23.242;2023-09-19T03:20:01;7.57;;;6.30;;
8297;SDS011;4187;42.778;23.242;2023-09-19T03:22:29;7.18;;;6.47;;
8297;SDS011;4187;42.778;23.242;2023-09-19T03:24:56;5.95;;;5.43;;
8297;SDS011;4187;42.778;23.242;2023-09-19T03:27:24;7.68;;;6.15;;
8297;SDS011;4187;42.778;23.242;2023-09-19T03:29:52;7.10;;;5.55;;
8297;SDS011;4187;42.778;23.242;2023-09-19T03:32:19;6.68;;;5.75;;
8297;SDS011;4187;42.778;23.242;2023-09-19T03:34:46;5.75;;;5.25;;
8297;SDS011;4187;42.778;23.242;2023-09-19T03:37:13;6.63;;;5.97;;
8297;SDS011;4187;42.778;23.242;2023-09-19T03:39:41;8.38;;;6.15;;
8297;SDS011;4187;42.778;23.242;2023-09-19T03:42:08;6.63;;;5.82;;
8297;SDS011;4187;42.778;23.242;2023-09-19T03:44:36;6.32;;;5.72;;
8297;SDS011;4187;42.778;23.242;2023-09-19T03:47:03;6.72;;;5.60;;
8297;SDS011;4187;42.778;23.242;2023-09-19T03:49:31;9.25;;;5.53;;
8297;SDS011;4187;42.778;23.242;2023-09-19T03:51:59;6.50;;;5.88;;
8297;SDS011;4187;42.778;23.242;2023-09-19T03:54:26;8.07;;;5.10;;
8297;SDS011;4187;42.778;23.242;2023-09-19T03:56:52;6.47;;;5.60;;
8297;SDS011;4187;42.778;23.242;2023-09-19T03:59:19;6.22;;;5.63;;
8297;SDS011;4187;42.778;23.242;2023-09-19T04:01:48;6.10;;;5.50;;
8297;SDS011;4187;42.778;23.242;2023-09-19T04:04:15;6.07;;;5.57;;
8297;SDS011;4187;42.778;23.242;2023-09-19T04:06:44;8.25;;;5.90;;
8297;SDS011;4187;42.778;23.242;2023-09-19T04:09:10;7.80;;;5.82;;
8297;SDS011;4187;42.778;23.242;2023-09-19T04:11:38;7.50;;;6.10;;
8297;SDS011;4187;42.778;23.242;2023-09-19T04:14:05;7.45;;;5.68;;
8297;SDS011;4187;42.778;23.242;2023-09-19T04:16:31;7.50;;;5.90;;
8297;SDS011;4187;42.778;23.242;2023-09-19T04:18:59;6.45;;;5.78;;
8297;SDS011;4187;42.778;23.242;2023-09-19T04:21:28;7.25;;;5.90;;
8297;SDS011;4187;42.778;23.242;2023-09-19T04:23:55;7.68;;;6.93;;
8297;SDS011;4187;42.778;23.242;2023-09-19T04:26:22;7.53;;;5.88;;
8297;SDS011;4187;42.778;23.242;2023-09-19T04:28:48;6.00;;;5.35;;
8297;SDS011;4187;42.778;23.242;2023-09-19T04:31:16;6.78;;;6.10;;
8297;SDS011;4187;42.778;23.242;2023-09-19T04:33:44;7.13;;;6.50;;
8297;SDS011;4187;42.778;23.242;2023-09-19T04:36:13;8.68;;;6.15;;
8297;SDS011;4187;42.778;23.242;2023-09-19T04:38:40;7.72;;;6.25;;
8297;SDS011;4187;42.778;23.242;2023-09-19T04:41:06;11.82;;;5.60;;
8297;SDS011;4187;42.778;23.242;2023-09-19T04:43:33;8.38;;;5.68;;
8297;SDS011;4187;42.778;23.242;2023-09-19T04:46:00;6.07;;;5.47;;
8297;SDS011;4187;42.778;23.242;2023-09-19T04:48:28;9.48;;;5.38;;
8297;SDS011;4187;42.778;23.242;2023-09-19T04:50:55;9.38;;;5.45;;
8297;SDS011;4187;42.778;23.242;2023-09-19T04:53:23;8.75;;;5.57;;
8297;SDS011;4187;42.778;23.242;2023-09-19T04:55:50;7.22;;;6.53;;
8297;SDS011;4187;42.778;23.242;2023-09-19T04:58:20;8.70;;;5.55;;
8297;SDS011;4187;42.778;23.242;2023-09-19T05:00:47;5.88;;;5.30;;
8297;SDS011;4187;42.778;23.242;2023-09-19T05:03:16;6.85;;;5.55;;
8297;SDS011;4187;42.778;23.242;2023-09-19T05:05:45;8.68;;;5.88;;
8297;SDS011;4187;42.778;23.242;2023-09-19T05:08:11;8.30;;;5.93;;
8297;SDS011;4187;42.778;23.242;2023-09-19T05:10:41;10.23;;;5.55;;
8297;SDS011;4187;42.778;23.242;2023-09-19T05:13:08;11.05;;;6.65;;
8297;SDS011;4187;42.778;23.242;2023-09-19T05:15:34;7.32;;;5.93;;
8297;SDS011;4187;42.778;23.242;2023-09-19T05:18:01;8.73;;;5.88;;
8297;SDS011;4187;42.778;23.242;2023-09-19T05:20:28;6.30;;;5.60;;
8297;SDS011;4187;42.778;23.242;2023-09-19T05:22:58;10.63;;;6.70;;
8297;SDS011;4187;42.778;23.242;2023-09-19T05:25:27;8.75;;;5.70;;
8297;SDS011;4187;42.778;23.242;2023-09-19T05:27:55;10.73;;;6.90;;
8297;SDS011;4187;42.778;23.242;2023-09-19T05:30:24;6.70;;;6.05;;
8297;SDS011;4187;42.778;23.242;2023-09-19T05:32:52;7.93;;;5.57;;
8297;SDS011;4187;42.778;23.242;2023-09-19T05:35:19;7.50;;;6.63;;
8297;SDS011;4187;42.778;23.242;2023-09-19T05:37:47;9.43;;;6.18;;
8297;SDS011;4187;42.778;23.242;2023-09-19T05:40:16;9.35;;;6.45;;
8297;SDS011;4187;42.778;23.242;2023-09-19T05:42:43;9.82;;;6.45;;
8297;SDS011;4187;42.778;23.242;2023-09-19T05:45:11;8.15;;;6.40;;
8297;SDS011;4187;42.778;23.242;2023-09-19T05:47:38;9.95;;;6.47;;
8297;SDS011;4187;42.778;23.242;2023-09-19T05:50:09;11.00;;;6.28;;
8297;SDS011;4187;42.778;23.242;2023-09-19T05:52:36;15.80;;;6.25;;
8297;SDS011;4187;42.778;23.242;2023-09-19T05:55:03;10.07;;;6.22;;
8297;SDS011;4187;42.778;23.242;2023-09-19T05:57:32;11.30;;;6.13;;
8297;SDS011;4187;42.778;23.242;2023-09-19T05:59:59;8.60;;;6.93;;
8297;SDS011;4187;42.778;23.242;2023-09-19T06:02:27;9.40;;;6.30;;
8297;SDS011;4187;42.778;23.242;2023-09-19T06:04:55;7.43;;;6.72;;
8297;SDS011;4187;42.778;23.242;2023-09-19T06:07:22;11.98;;;6.28;;
8297;SDS011;4187;42.778;23.242;2023-09-19T06:09:51;8.77;;;6.20;;
8297;SDS011;4187;42.778;23.242;2023-09-19T06:12:18;6.63;;;5.38;;
8297;SDS011;4187;42.778;23.242;2023-09-19T06:14:45;6.70;;;6.03;;
8297;SDS011;4187;42.778;23.242;2023-09-19T06:17:13;7.63;;;5.78;;
8297;SDS011;4187;42.778;23.242;2023-09-19T06:19:42;9.73;;;6.28;;
8297;SDS011;4187;42.778;23.242;2023-09-19T06:22:11;6.72;;;5.95;;
8297;SDS011;4187;42.778;23.242;2023-09-19T06:24:41;7.80;;;6.15;;
8297;SDS011;4187;42.778;23.242;2023-09-19T06:27:08;6.72;;;5.70;;
8297;SDS011;4187;42.778;23.242;2023-09-19T06:29:35;7.13;;;5.40;;
8297;SDS011;4187;42.778;23.242;2023-09-19T06:32:02;5.68;;;4.90;;
8297;SDS011;4187;42.778;23.242;2023-09-19T06:34:33;8.38;;;5.68;;
8297;SDS011;4187;42.778;23.242;2023-09-19T06:37:02;9.43;;;6.28;;
8297;SDS011;4187;42.778;23.242;2023-09-19T06:39:30;6.60;;;4.53;;
8297;SDS011;4187;42.778;23.242;2023-09-19T06:41:56;5.53;;;4.47;;
8297;SDS011;4187;42.778;23.242;2023-09-19T06:44:25;9.20;;;4.65;;
8297;SDS011;4187;42.778;23.242;2023-09-19T06:46:54;5.85;;;4.75;;
8297;SDS011;4187;42.778;23.242;2023-09-19T06:49:21;6.70;;;4.88;;
8297;SDS011;4187;42.778;23.242;2023-09-19T06:51:48;6.07;;;4.40;;
8297;SDS011;4187;42.778;23.242;2023-09-19T06:54:16;5.10;;;4.57;;
8297;SDS011;4187;42.778;23.242;2023-09-19T06:56:43;5.95;;;4.20;;
8297;SDS011;4187;42.778;23.242;2023-09-19T06:59:10;7.40;;;4.57;;
8297;SDS011;4187;42.778;23.242;2023-09-19T07:01:39;5.22;;;4.18;;
8297;SDS011;4187;42.778;23.242;2023-09-19T07:04:06;6.30;;;4.13;;
8297;SDS011;4187;42.778;23.242;2023-09-19T07:06:33;5.50;;;3.47;;
8297;SDS011;4187;42.778;23.242;2023-09-19T07:09:00;7.32;;;4.53;;
8297;SDS011;4187;42.778;23.242;2023-09-19T07:11:29;5.45;;;4.63;;
8297;SDS011;4187;42.778;23.242;2023-09-19T07:13:57;8.88;;;5.43;;
8297;SDS011;4187;42.778;23.242;2023-09-19T07:16:24;8.73;;;4.85;;
8297;SDS011;4187;42.778;23.242;2023-09-19T07:18:55;7.03;;;4.65;;
8297;SDS011;4187;42.778;23.242;2023-09-19T07:21:22;5.28;;;4.10;;
8297;SDS011;4187;42.778;23.242;2023-09-19T07:23:49;4.68;;;4.10;;
8297;SDS011;4187;42.778;23.242;2023-09-19T07:26:16;9.38;;;4.60;;
8297;SDS011;4187;42.778;23.242;2023-09-19T07:28:44;6.13;;;4.35;;
8297;SDS011;4187;42.778;23.242;2023-09-19T07:31:11;10.43;;;4.15;;
8297;SDS011;4187;42.778;23.242;2023-09-19T07:33:39;6.88;;;4.22;;
8297;SDS011;4187;42.778;23.242;2023-09-19T07:36:09;6.57;;;4.40;;
8297;SDS011;4187;42.778;23.242;2023-09-19T07:38:39;4.97;;;4.28;;
8297;SDS011;4187;42.778;23.242;2023-09-19T07:41:06;5.57;;;4.05;;
8297;SDS011;4187;42.778;23.242;2023-09-19T07:43:34;5.60;;;3.83;;
8297;SDS011;4187;42.778;23.242;2023-09-19T07:46:04;5.22;;;4.10;;
8297;SDS011;4187;42.778;23.242;2023-09-19T07:48:33;5.85;;;4.65;;
8297;SDS011;4187;42.778;23.242;2023-09-19T07:51:03;5.60;;;4.13;;
8297;SDS011;4187;42.778;23.242;2023-09-19T07:53:31;4.57;;;4.10;;
8297;SDS011;4187;42.778;23.242;2023-09-19T07:56:02;8.27;;;4.15;;
8297;SDS011;4187;42.778;23.242;2023-09-19T07:58:30;10.93;;;4.45;;
8297;SDS011;4187;42.778;23.242;2023-09-19T08:01:02;7.25;;;4.13;;
8297;SDS011;4187;42.778;23.242;2023-09-19T08:03:31;6.00;;;4.10;;
8297;SDS011;4187;42.778;23.242;2023-09-19T08:05:58;7.60;;;5.68;;
8297;SDS011;4187;42.778;23.242;2023-09-19T08:08:25;6.38;;;4.32;;
8297;SDS011;4187;42.778;23.242;2023-09-19T08:10:53;10.77;;;4.30;;
8297;SDS011;4187;42.778;23.242;2023-09-19T08:13:21;5.25;;;4.72;;
8297;SDS011;4187;42.778;23.242;2023-09-19T08:15:48;6.53;;;3.92;;
8297;SDS011;4187;42.778;23.242;2023-09-19T08:18:19;4.57;;;3.75;;
8297;SDS011;4187;42.778;23.242;2023-09-19T08:20:51;7.93;;;3.75;;
8297;SDS011;4187;42.778;23.242;2023-09-19T08:23:18;4.45;;;3.40;;
8297;SDS011;4187;42.778;23.242;2023-09-19T08:25:46;4.68;;;3.67;;
8297;SDS011;4187;42.778;23.242;2023-09-19T08:28:13;6.72;;;3.30;;
8297;SDS011;4187;42.778;23.242;2023-09-19T08:30:44;5.35;;;3.85;;
8297;SDS011;4187;42.778;23.242;2023-09-19T08:33:11;5.75;;;3.75;;
8297;SDS011;4187;42.778;23.242;2023-09-19T08:35:41;4.68;;;3.33;;
8297;SDS011;4187;42.778;23.242;2023-09-19T08:38:10;5.65;;;4.07;;
8297;SDS011;4187;42.778;23.242;2023-09-19T08:40:39;3.70;;;3.20;;
8297;SDS011;4187;42.778;23.242;2023-09-19T08:43:07;4.32;;;3.92;;
8297;SDS011;4187;42.778;23.242;2023-09-19T08:45:34;6.80;;;3.78;;
8297;SDS011;4187;42.778;23.242;2023-09-19T08:48:06;3.75;;;3.33;;
8297;SDS011;4187;42.778;23.242;2023-09-19T08:50:49;4.10;;;3.70;;
8297;SDS011;4187;42.778;23.242;2023-09-19T08:53:20;6.45;;;4.03;;
8297;SDS011;4187;42.778;23.242;2023-09-19T08:55:53;5.75;;;4.78;;
8297;SDS011;4187;42.778;23.242;2023-09-19T08:58:21;3.92;;;3.53;;
8297;SDS011;4187;42.778;23.242;2023-09-19T09:00:53;8.60;;;4.05;;
8297;SDS011;4187;42.778;23.242;2023-09-19T09:03:22;4.38;;;3.88;;
8297;SDS011;4187;42.778;23.242;2023-09-19T09:05:51;5.82;;;3.42;;
8297;SDS011;4187;42.778;23.242;2023-09-19T09:08:18;10.93;;;3.75;;
8297;SDS011;4187;42.778;23.242;2023-09-19T09:10:46;4.07;;;3.60;;
8297;SDS011;4187;42.778;23.242;2023-09-19T09:13:14;6.32;;;4.15;;
8297;SDS011;4187;42.778;23.242;2023-09-19T09:15:41;6.13;;;4.30;;
8297;SDS011;4187;42.778;23.242;2023-09-19T09:18:09;4.80;;;3.80;;
8297;SDS011;4187;42.778;23.242;2023-09-19T09:20:37;5.10;;;3.72;;
8297;SDS011;4187;42.778;23.242;2023-09-19T09:23:05;5.70;;;4.18;;
8297;SDS011;4187;42.778;23.242;2023-09-19T09:25:47;6.80;;;4.00;;
8297;SDS011;4187;42.778;23.242;2023-09-19T09:28:22;6.38;;;4.22;;
8297;SDS011;4187;42.778;23.242;2023-09-19T09:30:50;6.03;;;3.90;;
8297;SDS011;4187;42.778;23.242;2023-09-19T09:33:17;7.45;;;4.30;;
8297;SDS011;4187;42.778;23.242;2023-09-19T09:35:47;6.90;;;4.32;;
8297;SDS011;4187;42.778;23.242;2023-09-19T09:38:18;5.75;;;4.40;;
8297;SDS011;4187;42.778;23.242;2023-09-19T09:40:47;9.90;;;4.78;;
8297;SDS011;4187;42.778;23.242;2023-09-19T09:43:25;7.65;;;4.20;;
8297;SDS011;4187;42.778;23.242;2023-09-19T09:49:05;7.07;;;3.97;;
8297;SDS011;4187;42.778;23.242;2023-09-19T09:51:44;9.05;;;4.20;;
8297;SDS011;4187;42.778;23.242;2023-09-19T09:54:24;7.18;;;4.68;;
8297;SDS011;4187;42.778;23.242;2023-09-19T09:56:59;4.43;;;4.03;;
8297;SDS011;4187;42.778;23.242;2023-09-19T09:59:45;6.10;;;4.32;;
8297;SDS011;4187;42.778;23.242;2023-09-19T10:02:13;5.88;;;4.00;;
8297;SDS011;4187;42.778;23.242;2023-09-19T10:04:47;6.55;;;4.47;;
8297;SDS011;4187;42.778;23.242;2023-09-19T10:07:33;7.28;;;4.13;;
8297;SDS011;4187;42.778;23.242;2023-09-19T10:10:05;6.03;;;4.25;;
8297;SDS011;4187;42.778;23.242;2023-09-19T10:12:42;5.60;;;4.30;;
8297;SDS011;4187;42.778;23.242;2023-09-19T10:15:11;8.93;;;4.40;;
8297;SDS011;4187;42.778;23.242;2023-09-19T10:17:40;4.60;;;4.20;;
8297;SDS011;4187;42.778;23.242;2023-09-19T10:20:11;6.38;;;4.40;;
8297;SDS011;4187;42.778;23.242;2023-09-19T10:22:48;5.03;;;4.10;;
8297;SDS011;4187;42.778;23.242;2023-09-19T10:25:25;6.10;;;4.70;;
8297;SDS011;4187;42.778;23.242;2023-09-19T10:27:54;4.40;;;3.80;;
8297;SDS011;4187;42.778;23.242;2023-09-19T10:30:22;4.75;;;4.35;;
8297;SDS011;4187;42.778;23.242;2023-09-19T10:32:53;6.80;;;4.00;;
8297;SDS011;4187;42.778;23.242;2023-09-19T10:35:26;9.77;;;4.38;;
8297;SDS011;4187;42.778;23.242;2023-09-19T10:37:54;6.50;;;4.43;;
8297;SDS011;4187;42.778;23.242;2023-09-19T10:40:24;6.28;;;3.97;;
8297;SDS011;4187;42.778;23.242;2023-09-19T10:42:58;7.55;;;4.00;;
8297;SDS011;4187;42.778;23.242;2023-09-19T10:45:29;6.80;;;3.83;;
8297;SDS011;4187;42.778;23.242;2023-09-19T10:47:57;6.20;;;4.35;;
8297;SDS011;4187;42.778;23.242;2023-09-19T10:50:24;10.10;;;4.32;;
8297;SDS011;4187;42.778;23.242;2023-09-19T10:52:56;8.35;;;4.53;;
8297;SDS011;4187;42.778;23.242;2023-09-19T10:55:31;6.00;;;4.45;;
8297;SDS011;4187;42.778;23.242;2023-09-19T10:58:00;7.43;;;4.32;;
8297;SDS011;4187;42.778;23.242;2023-09-19T11:00:30;7.03;;;3.90;;
8297;SDS011;4187;42.778;23.242;2023-09-19T11:03:18;4.65;;;4.25;;
8297;SDS011;4187;42.778;23.242;2023-09-19T11:06:08;8.50;;;4.20;;
8297;SDS011;4187;42.778;23.242;2023-09-19T11:08:51;7.15;;;3.70;;
8297;SDS011;4187;42.778;23.242;2023-09-19T11:11:48;6.70;;;4.32;;
8297;SDS011;4187;42.778;23.242;2023-09-19T11:20:18;5.05;;;4.22;;
8297;SDS011;4187;42.778;23.242;2023-09-19T11:23:22;6.30;;;4.18;;
8297;SDS011;4187;42.778;23.242;2023-09-19T11:25:51;5.85;;;4.22;;
8297;SDS011;4187;42.778;23.242;2023-09-19T11:28:30;6.95;;;4.65;;
8297;SDS011;4187;42.778;23.242;2023-09-19T11:40:44;9.20;;;4.57;;
8297;SDS011;4187;42.778;23.242;2023-09-19T11:43:33;5.35;;;4.60;;
8297;SDS011;4187;42.778;23.242;2023-09-19T11:46:07;5.65;;;4.28;;
8297;SDS011;4187;42.778;23.242;2023-09-19T11:48:40;5.30;;;4.78;;
8297;SDS011;4187;42.778;23.242;2023-09-19T11:51:10;11.90;;;5.05;;
8297;SDS011;4187;42.778;23.242;2023-09-19T11:53:44;7.25;;;4.80;;
8297;SDS011;4187;42.778;23.242;2023-09-19T11:56:13;9.15;;;5.00;;
8297;SDS011;4187;42.778;23.242;2023-09-19T11:58:44;7.70;;;4.65;;
8297;SDS011;4187;42.778;23.242;2023-09-19T12:01:22;4.47;;;4.07;;
8297;SDS011;4187;42.778;23.242;2023-09-19T12:03:54;4.47;;;4.07;;
8297;SDS011;4187;42.778;23.242;2023-09-19T12:06:23;6.60;;;4.55;;
8297;SDS011;4187;42.778;23.242;2023-09-19T12:08:50;10.88;;;4.65;;
8297;SDS011;4187;42.778;23.242;2023-09-19T12:11:21;7.97;;;4.95;;
8297;SDS011;4187;42.778;23.242;2023-09-19T12:13:50;8.98;;;5.10;;
8297;SDS011;4187;42.778;23.242;2023-09-19T12:16:18;7.40;;;5.53;;
8297;SDS011;4187;42.778;23.242;2023-09-19T12:18:49;7.47;;;5.13;;
8297;SDS011;4187;42.778;23.242;2023-09-19T12:21:26;7.30;;;5.57;;
8297;SDS011;4187;42.778;23.242;2023-09-19T12:24:05;6.60;;;5.20;;
8297;SDS011;4187;42.778;23.242;2023-09-19T12:26:40;10.70;;;5.50;;
8297;SDS011;4187;42.778;23.242;2023-09-19T12:29:16;8.18;;;5.35;;
8297;SDS011;4187;42.778;23.242;2023-09-19T12:31:47;6.75;;;5.32;;
8297;SDS011;4187;42.778;23.242;2023-09-19T12:34:19;8.35;;;5.35;;
8297;SDS011;4187;42.778;23.242;2023-09-19T12:36:47;6.53;;;5.32;;
8297;SDS011;4187;42.778;23.242;2023-09-19T12:39:23;6.35;;;5.05;;
8297;SDS011;4187;42.778;23.242;2023-09-19T12:41:51;7.60;;;5.75;;
8297;SDS011;4187;42.778;23.242;2023-09-19T12:44:21;8.00;;;5.25;;
8297;SDS011;4187;42.778;23.242;2023-09-19T12:46:50;8.50;;;5.72;;
8297;SDS011;4187;42.778;23.242;2023-09-19T12:49:20;9.18;;;5.32;;
8297;SDS011;4187;42.778;23.242;2023-09-19T12:51:48;8.07;;;5.22;;
8297;SDS011;4187;42.778;23.242;2023-09-19T12:54:16;7.90;;;5.40;;
8297;SDS011;4187;42.778;23.242;2023-09-19T12:56:44;7.60;;;5.38;;
8297;SDS011;4187;42.778;23.242;2023-09-19T12:59:14;7.60;;;5.10;;
8297;SDS011;4187;42.778;23.242;2023-09-19T13:01:43;11.25;;;6.00;;
8297;SDS011;4187;42.778;23.242;2023-09-19T13:04:12;7.80;;;5.40;;
8297;SDS011;4187;42.778;23.242;2023-09-19T13:06:43;8.07;;;5.97;;
8297;SDS011;4187;42.778;23.242;2023-09-19T13:09:11;7.97;;;5.72;;
8297;SDS011;4187;42.778;23.242;2023-09-19T13:11:39;7.32;;;5.32;;
8297;SDS011;4187;42.778;23.242;2023-09-19T13:14:18;5.68;;;4.97;;
8297;SDS011;4187;42.778;23.242;2023-09-19T13:16:58;10.73;;;5.70;;
8297;SDS011;4187;42.778;23.242;2023-09-19T13:19:36;9.35;;;5.72;;
8297;SDS011;4187;42.778;23.242;2023-09-19T13:22:05;8.43;;;5.55;;
8297;SDS011;4187;42.778;23.242;2023-09-19T13:24:33;6.82;;;5.63;;
8297;SDS011;4187;42.778;23.242;2023-09-19T13:27:05;6.32;;;5.00;;
8297;SDS011;4187;42.778;23.242;2023-09-19T13:29:32;9.98;;;5.75;;
8297;SDS011;4187;42.778;23.242;2023-09-19T13:32:00;6.97;;;5.45;;
8297;SDS011;4187;42.778;23.242;2023-09-19T13:34:27;7.20;;;4.57;;
8297;SDS011;4187;42.778;23.242;2023-09-19T13:36:55;8.55;;;5.20;;
8297;SDS011;4187;42.778;23.242;2023-09-19T13:39:24;8.07;;;5.32;;
8297;SDS011;4187;42.778;23.242;2023-09-19T13:41:51;7.88;;;5.13;;
8297;SDS011;4187;42.778;23.242;2023-09-19T13:44:17;9.60;;;5.28;;
8297;SDS011;4187;42.778;23.242;2023-09-19T13:46:44;5.55;;;5.00;;
8297;SDS011;4187;42.778;23.242;2023-09-19T13:49:13;6.93;;;5.35;;
8297;SDS011;4187;42.778;23.242;2023-09-19T13:51:40;11.65;;;5.72;;
8297;SDS011;4187;42.778;23.242;2023-09-19T13:54:08;6.07;;;4.97;;
8297;SDS011;4187;42.778;23.242;2023-09-19T13:56:36;5.60;;;4.97;;
8297;SDS011;4187;42.778;23.242;2023-09-19T13:59:04;6.55;;;5.15;;
8297;SDS011;4187;42.778;23.242;2023-09-19T14:01:30;6.20;;;5.50;;
8297;SDS011;4187;42.778;23.242;2023-09-19T14:03:57;5.47;;;4.75;;
8297;SDS011;4187;42.778;23.242;2023-09-19T14:06:25;6.97;;;5.07;;
8297;SDS011;4187;42.778;23.242;2023-09-19T14:08:52;6.15;;;4.82;;
8297;SDS011;4187;42.778;23.242;2023-09-19T14:11:19;7.95;;;5.53;;
8297;SDS011;4187;42.778;23.242;2023-09-19T14:13:46;5.72;;;5.00;;
8297;SDS011;4187;42.778;23.242;2023-09-19T14:16:16;8.82;;;5.65;;
8297;SDS011;4187;42.778;23.242;2023-09-19T14:18:44;8.95;;;6.07;;
8297;SDS011;4187;42.778;23.242;2023-09-19T14:21:11;6.47;;;5.72;;
8297;SDS011;4187;42.778;23.242;2023-09-19T14:23:41;6.60;;;5.30;;
8297;SDS011;4187;42.778;23.242;2023-09-19T14:26:09;8.60;;;5.95;;
8297;SDS011;4187;42.778;23.242;2023-09-19T14:28:35;8.63;;;5.53;;
8297;SDS011;4187;42.778;23.242;2023-09-19T14:31:04;7.22;;;5.57;;
8297;SDS011;4187;42.778;23.242;2023-09-19T14:33:32;7.60;;;5.35;;
8297;SDS011;4187;42.778;23.242;2023-09-19T14:36:00;5.80;;;5.13;;
8297;SDS011;4187;42.778;23.242;2023-09-19T14:38:29;8.68;;;6.07;;
8297;SDS011;4187;42.778;23.242;2023-09-19T14:41:02;11.88;;;6.25;;
8297;SDS011;4187;42.778;23.242;2023-09-19T14:43:29;9.90;;;6.22;;
8297;SDS011;4187;42.778;23.242;2023-09-19T14:45:57;8.57;;;6.30;;
8297;SDS011;4187;42.778;23.242;2023-09-19T14:48:28;9.55;;;6.13;;
8297;SDS011;4187;42.778;23.242;2023-09-19T14:50:55;6.70;;;5.97;;
8297;SDS011;4187;42.778;23.242;2023-09-19T14:53:28;7.90;;;5.65;;
8297;SDS011;4187;42.778;23.242;2023-09-19T14:55:55;6.95;;;5.32;;
8297;SDS011;4187;42.778;23.242;2023-09-19T14:58:23;7.15;;;5.72;;
8297;SDS011;4187;42.778;23.242;2023-09-19T15:00:51;7.00;;;5.25;;
8297;SDS011;4187;42.778;23.242;2023-09-19T15:03:18;9.93;;;6.22;;
8297;SDS011;4187;42.778;23.242;2023-09-19T15:05:45;10.38;;;6.53;;
8297;SDS011;4187;42.778;23.242;2023-09-19T15:08:12;7.68;;;6.20;;
8297;SDS011;4187;42.778;23.242;2023-09-19T15:10:38;8.48;;;5.82;;
8297;SDS011;4187;42.778;23.242;2023-09-19T15:13:05;9.88;;;5.18;;
8297;SDS011;4187;42.778;23.242;2023-09-19T15:15:34;8.30;;;5.72;;
8297;SDS011;4187;42.778;23.242;2023-09-19T15:18:00;9.38;;;5.80;;
8297;SDS011;4187;42.778;23.242;2023-09-19T15:20:27;8.80;;;5.95;;
8297;SDS011;4187;42.778;23.242;2023-09-19T15:22:56;7.88;;;5.78;;
8297;SDS011;4187;42.778;23.242;2023-09-19T15:25:22;5.95;;;5.40;;
8297;SDS011;4187;42.778;23.242;2023-09-19T15:27:50;7.10;;;5.53;;
8297;SDS011;4187;42.778;23.242;2023-09-19T15:30:17;5.90;;;5.30;;
8297;SDS011;4187;42.778;23.242;2023-09-19T15:32:45;9.35;;;5.55;;
8297;SDS011;4187;42.778;23.242;2023-09-19T15:35:12;8.80;;;5.80;;
8297;SDS011;4187;42.778;23.242;2023-09-19T15:37:42;8.80;;;5.80;;